createdAt,value
2019-04-10T00:01:46.096Z,54.73
2019-04-10T00:05:50.009Z,42.83
2019-04-10T00:09:53.213Z,50.73
2019-04-10T00:13:56.348Z,56.53
2019-04-10T00:17:59.846Z,52.37
2019-04-10T00:22:04.180Z,55.20
2019-04-10T00:26:07.703Z,52.20
2019-04-10T00:30:11.219Z,50.53
2019-04-10T00:34:14.290Z,51.60
2019-04-10T00:38:17.678Z,54.53
2019-04-10T00:42:21.063Z,52.37
2019-04-10T00:46:24.694Z,54.80
2019-04-10T00:50:28.679Z,48.80
2019-04-10T00:54:33.012Z,51.37
2019-04-10T00:58:37.447Z,52.50
2019-04-10T01:02:41.327Z,54.27
2019-04-10T01:06:44.397Z,50.17
2019-04-10T01:10:47.576Z,50.10
2019-04-10T01:14:50.855Z,51.20
2019-04-10T01:18:54.080Z,49.50
2019-04-10T01:22:57.366Z,50.27
2019-04-10T01:27:01.306Z,45.87
2019-04-10T01:31:04.547Z,51.13
2019-04-10T01:35:07.935Z,50.97
2019-04-10T01:39:13.766Z,48.27
2019-04-10T01:43:18.956Z,47.23
2019-04-10T01:47:21.870Z,51.60
2019-04-10T01:51:25.509Z,52.93
2019-04-10T01:55:31.058Z,51.60
2019-04-10T01:59:36.159Z,53.30
2019-04-10T02:03:42.425Z,53.17
2019-04-10T02:07:57.840Z,50.53
2019-04-10T02:11:50.787Z,45.70
2019-04-10T02:15:54.468Z,47.63
2019-04-10T02:19:58.630Z,50.00
2019-04-10T02:24:02.857Z,50.17
2019-04-10T02:28:06.893Z,47.83
2019-04-10T02:32:10.345Z,53.30
2019-04-10T02:36:13.637Z,53.73
2019-04-10T02:40:17.265Z,50.97
2019-04-10T02:44:20.681Z,47.30
2019-04-10T02:48:25.201Z,50.13
2019-04-10T02:52:28.733Z,47.73
2019-04-10T02:56:33.242Z,46.43
2019-04-10T03:00:37.826Z,50.20
2019-04-10T03:04:42.641Z,51.57
2019-04-10T03:09:02.417Z,51.40
2019-04-10T03:12:52.426Z,41.03
2019-04-10T03:16:55.642Z,48.83
2019-04-10T03:20:58.686Z,48.70
2019-04-10T03:25:02.615Z,44.77
2019-04-10T03:29:07.360Z,46.17
2019-04-10T03:33:18.995Z,43.70
2019-04-10T03:37:18.137Z,45.43
2019-04-10T03:41:21.358Z,40.40
2019-04-10T03:45:24.646Z,40.83
2019-04-10T03:49:27.914Z,42.80
2019-04-10T03:53:31.977Z,37.77
2019-04-10T03:57:35.162Z,38.17
2019-04-10T04:01:38.925Z,37.20
2019-04-10T04:05:42.652Z,36.07
2019-04-10T04:09:46.046Z,36.20
2019-04-10T04:13:50.400Z,36.57
2019-04-10T04:17:54.715Z,34.80
2019-04-10T04:21:58.465Z,35.30
2019-04-10T04:26:01.705Z,34.27
2019-04-10T04:30:08.518Z,31.00
2019-04-10T04:34:12.267Z,31.00
2019-04-10T04:38:16.319Z,31.80
2019-04-10T04:42:19.535Z,32.37
2019-04-10T04:46:22.700Z,30.83
2019-04-10T04:50:27.035Z,31.50
2019-04-10T04:54:30.994Z,28.87
2019-04-10T04:58:34.260Z,30.97
2019-04-10T05:02:37.313Z,29.50
2019-04-10T05:06:41.924Z,29.27
2019-04-10T05:10:46.003Z,30.50
2019-04-10T05:14:49.525Z,29.20
2019-04-10T05:18:52.659Z,29.00
2019-04-10T05:22:55.819Z,29.97
2019-04-10T05:26:59.235Z,27.57
2019-04-10T05:31:03.091Z,28.90
2019-04-10T05:35:08.492Z,27.00
2019-04-10T05:39:12.628Z,28.47
2019-04-10T05:43:15.785Z,32.07
2019-04-10T05:47:19.251Z,26.80
2019-04-10T05:51:23.349Z,30.80
2019-04-10T05:55:26.693Z,29.17
2019-04-10T05:59:30.111Z,26.73
2019-04-10T06:03:33.482Z,29.37
2019-04-10T06:07:37.835Z,27.50
2019-04-10T06:11:42.979Z,29.13
2019-04-10T06:15:45.874Z,27.37
2019-04-10T06:19:49.006Z,29.97
2019-04-10T06:23:52.237Z,29.63
2019-04-10T06:27:55.279Z,28.50
2019-04-10T06:31:59.005Z,27.63
2019-04-10T06:36:02.850Z,28.73
2019-04-10T06:40:15.342Z,29.20
2019-04-10T06:44:11.884Z,27.40
2019-04-10T06:48:17.194Z,29.60
2019-04-10T06:52:20.693Z,29.57
2019-04-10T06:56:24.986Z,27.00
2019-04-10T07:00:28.636Z,28.83
2019-04-10T07:04:42.843Z,29.30
2019-04-10T07:08:40.179Z,27.43
2019-04-10T07:12:47.777Z,27.67
2019-04-10T07:16:51.199Z,25.87
2019-04-10T07:20:58.325Z,27.83
2019-04-10T07:25:00.496Z,27.90
2019-04-10T07:29:04.603Z,25.70
2019-04-10T07:33:07.767Z,28.60
2019-04-10T07:37:14.664Z,28.43
2019-04-10T07:41:21.021Z,31.47
2019-04-10T07:45:20.884Z,28.30
2019-04-10T07:49:26.652Z,28.67
2019-04-10T07:53:29.267Z,30.50
2019-04-10T07:57:32.889Z,28.90
2019-04-10T08:01:36.069Z,28.77
2019-04-10T08:05:39.296Z,28.97
2019-04-10T08:09:44.474Z,29.27
2019-04-10T08:13:47.680Z,28.43
2019-04-10T08:17:51.401Z,27.90
2019-04-10T08:21:54.885Z,24.57
2019-04-10T08:25:58.069Z,29.57
2019-04-10T08:30:01.258Z,27.10
2019-04-10T08:34:04.388Z,25.77
2019-04-10T08:38:07.663Z,26.83
2019-04-10T08:42:10.905Z,25.60
2019-04-10T08:46:14.821Z,26.00
2019-04-10T08:50:17.832Z,26.50
2019-04-10T08:54:20.853Z,26.77
2019-04-10T08:58:24.972Z,28.00
2019-04-10T09:02:28.313Z,27.20
2019-04-10T09:06:31.572Z,27.10
2019-04-10T09:10:36.612Z,23.70
2019-04-10T09:14:39.700Z,24.33
2019-04-10T09:18:42.781Z,24.40
2019-04-10T09:23:10.342Z,24.80
2019-04-10T09:26:50.899Z,24.63
2019-04-10T09:30:54.025Z,23.13
2019-04-10T09:34:58.211Z,25.13
2019-04-10T09:39:01.352Z,25.57
2019-04-10T09:43:05.087Z,26.27
2019-04-10T09:47:08.158Z,25.00
2019-04-10T09:51:11.771Z,23.40
2019-04-10T09:55:15.849Z,21.30
2019-04-10T09:59:30.589Z,20.43
2019-04-10T10:03:24.215Z,18.83
2019-04-10T10:07:28.364Z,20.00
2019-04-10T10:11:31.866Z,22.00
2019-04-10T10:15:35.574Z,20.77
2019-04-10T10:19:39.344Z,21.30
2019-04-10T10:23:44.649Z,21.50
2019-04-10T10:27:48.889Z,23.23
2019-04-10T10:31:52.685Z,22.07
2019-04-10T10:35:57.743Z,18.43
2019-04-10T10:40:01.337Z,19.13
2019-04-10T10:44:04.841Z,20.27
2019-04-10T10:48:08.677Z,20.70
2019-04-10T10:52:12.209Z,19.60
2019-04-10T10:56:15.379Z,18.60
2019-04-10T11:00:19.563Z,21.30
2019-04-10T11:04:23.259Z,20.13
2019-04-10T11:08:26.909Z,20.87
2019-04-10T11:12:31.089Z,19.67
2019-04-10T11:16:34.147Z,21.83
2019-04-10T11:20:37.156Z,20.87
2019-04-10T11:24:41.286Z,20.93
2019-04-10T11:28:45.620Z,20.93
2019-04-10T11:32:48.830Z,20.67
2019-04-10T11:37:14.230Z,22.33
2019-04-10T11:40:59.769Z,24.50
2019-04-10T11:45:05.216Z,24.17
2019-04-10T11:49:12.925Z,21.50
2019-04-10T11:53:14.556Z,20.93
2019-04-10T11:57:20.457Z,23.93
2019-04-10T12:01:25.519Z,18.67
2019-04-10T12:05:29.710Z,20.47
2019-04-10T12:13:38.952Z,19.70
2019-04-10T12:17:43.080Z,19.43
2019-04-10T12:21:47.613Z,19.30
2019-04-10T12:25:52.207Z,20.40
2019-04-10T12:29:55.827Z,20.30
2019-04-10T12:33:59.925Z,19.27
2019-04-10T12:38:08.115Z,22.10
2019-04-10T12:42:10.074Z,20.63
2019-04-10T12:46:13.301Z,21.10
2019-04-10T12:50:16.571Z,19.40
2019-04-10T12:54:19.672Z,20.57
2019-04-10T12:58:22.842Z,18.20
2019-04-10T13:02:26.178Z,16.80
2019-04-10T13:06:29.734Z,20.50
2019-04-10T13:10:33.617Z,20.63
2019-04-10T13:14:39.748Z,20.80
2019-04-10T13:18:42.979Z,21.30
2019-04-10T13:22:46.456Z,20.20
2019-04-10T13:26:50.209Z,21.43
2019-04-10T13:30:55.252Z,22.43
2019-04-10T13:34:58.360Z,20.67
2019-04-10T13:39:02.385Z,20.37
2019-04-10T13:43:05.621Z,17.47
2019-04-10T13:47:09.044Z,19.93
2019-04-10T13:51:13.111Z,17.03
2019-04-10T13:55:16.924Z,19.07
2019-04-10T13:59:20.690Z,17.97
2019-04-10T14:03:24.029Z,19.77
2019-04-10T14:07:28.285Z,18.47
2019-04-10T14:11:31.459Z,20.30
2019-04-10T14:15:36.194Z,20.03
2019-04-10T14:19:39.487Z,19.67
2019-04-10T14:23:43.132Z,20.53
2019-04-10T14:27:46.646Z,19.97
2019-04-10T14:31:51.763Z,19.33
2019-04-10T14:35:55.757Z,21.00
2019-04-10T14:39:59.833Z,22.73
2019-04-10T14:44:04.003Z,22.33
2019-04-10T14:48:07.909Z,23.03
2019-04-10T14:52:11.124Z,21.00
2019-04-10T14:56:14.384Z,18.80
2019-04-10T15:00:37.221Z,20.00
2019-04-10T15:04:41.400Z,22.10
2019-04-10T15:08:44.677Z,20.40
2019-04-10T15:12:47.994Z,21.50
2019-04-10T15:16:59.507Z,19.03
2019-04-10T15:20:58.605Z,19.43
2019-04-10T15:25:01.863Z,20.63
2019-04-10T15:29:05.838Z,18.27
2019-04-10T15:33:10.026Z,18.57
2019-04-10T15:37:13.244Z,18.80
2019-04-10T15:41:16.940Z,20.40
2019-04-10T15:45:20.092Z,18.67
2019-04-10T15:49:23.237Z,20.10
2019-04-10T15:53:26.483Z,18.67
2019-04-10T15:57:29.621Z,19.50
2019-04-10T16:01:33.060Z,21.03
2019-04-10T16:05:36.174Z,18.90
2019-04-10T16:09:48.624Z,20.97
2019-04-10T16:13:46.469Z,20.10
2019-04-10T16:18:00.639Z,19.73
2019-04-10T16:22:06.559Z,18.90
2019-04-10T16:26:11.083Z,19.30
2019-04-10T16:30:17.232Z,18.37
2019-04-10T16:34:20.617Z,18.80
2019-04-10T16:38:24.661Z,17.77
2019-04-10T16:42:28.584Z,19.83
2019-04-10T16:46:32.087Z,19.57
2019-04-10T16:50:36.411Z,20.33
2019-04-10T16:54:40.738Z,17.50
2019-04-10T16:58:44.474Z,22.00
2019-04-10T17:02:48.515Z,20.37
2019-04-10T17:06:52.571Z,20.43
2019-04-10T17:10:56.737Z,19.97
2019-04-10T17:14:59.910Z,19.83
2019-04-10T17:19:03.983Z,18.37
2019-04-10T17:23:08.150Z,19.37
2019-04-10T17:27:11.437Z,21.30
2019-04-10T17:31:14.549Z,19.03
2019-04-10T17:35:17.651Z,19.73
2019-04-10T17:39:20.709Z,18.00
2019-04-10T17:43:23.717Z,19.10
2019-04-10T17:47:27.015Z,18.90
2019-04-10T17:51:30.461Z,18.10
2019-04-10T17:55:35.699Z,20.50
2019-04-10T17:59:38.997Z,18.23
2019-04-10T18:03:50.413Z,20.33
2019-04-10T18:07:48.124Z,18.27
2019-04-10T18:11:51.414Z,15.53
2019-04-10T18:15:55.554Z,17.70
2019-04-10T18:20:01.260Z,14.77
2019-04-10T18:24:04.369Z,15.90
2019-04-10T18:28:07.754Z,14.20
2019-04-10T18:32:11.775Z,16.10
2019-04-10T18:36:15.377Z,14.80
2019-04-10T18:40:19.079Z,14.80
2019-04-10T18:44:22.746Z,16.33
2019-04-10T18:48:26.779Z,13.20
2019-04-10T18:52:30.132Z,13.33
2019-04-10T18:56:33.488Z,14.50
2019-04-10T19:00:41.180Z,16.30
2019-04-10T19:04:55.115Z,15.73
2019-04-10T19:09:08.271Z,13.27
2019-04-10T19:13:05.381Z,14.40
2019-04-10T19:17:09.113Z,15.97
2019-04-10T19:21:13.379Z,16.30
2019-04-10T19:25:16.538Z,15.63
2019-04-10T19:29:19.752Z,14.23
2019-04-10T19:33:23.760Z,15.37
2019-04-10T19:37:28.451Z,16.33
2019-04-10T19:41:37.808Z,15.57
2019-04-10T19:45:38.144Z,15.90
2019-04-10T19:49:41.360Z,14.60
2019-04-10T19:53:45.677Z,15.03
2019-04-10T19:57:49.975Z,15.97
2019-04-10T20:01:53.093Z,14.20
2019-04-10T20:05:56.159Z,14.77
2019-04-10T20:09:59.293Z,15.37
2019-04-10T20:14:04.035Z,14.83
2019-04-10T20:18:08.491Z,13.60
2019-04-10T20:22:12.811Z,13.50
2019-04-10T20:26:15.868Z,13.67
2019-04-10T20:30:20.937Z,14.20
2019-04-10T20:34:24.253Z,15.13
2019-04-10T20:38:27.456Z,12.17
2019-04-10T20:42:30.501Z,13.43
2019-04-10T20:46:33.947Z,11.43
2019-04-10T20:50:48.833Z,14.30
2019-04-10T20:54:53.062Z,13.60
2019-04-10T20:58:56.277Z,13.57
2019-04-10T21:03:04.189Z,12.00
2019-04-10T21:07:07.252Z,12.80
2019-04-10T21:11:11.620Z,12.53
2019-04-10T21:15:14.796Z,14.13
2019-04-10T21:19:18.499Z,12.70
2019-04-10T21:23:23.823Z,13.13
2019-04-10T21:27:28.105Z,12.30
2019-04-10T21:31:34.153Z,14.13
2019-04-10T21:35:39.336Z,16.73
2019-04-10T21:39:43.662Z,16.83
2019-04-10T21:43:47.386Z,15.77
2019-04-10T21:47:50.552Z,15.47
2019-04-10T21:52:06.074Z,14.73
2019-04-10T21:56:10.336Z,14.63
2019-04-10T22:00:16.407Z,14.80
2019-04-10T22:04:19.559Z,15.20
2019-04-10T22:08:42.465Z,14.40
2019-04-10T22:12:47.691Z,15.33
2019-04-10T22:16:50.590Z,16.87
2019-04-10T22:20:54.167Z,16.83
2019-04-10T22:24:59.137Z,16.87
2019-04-10T22:29:03.604Z,18.00
2019-04-10T22:33:07.647Z,16.40
2019-04-10T22:37:11.992Z,18.37
2019-04-10T22:41:23.636Z,17.07
2019-04-10T22:45:27.974Z,18.50
2019-04-10T22:49:32.633Z,17.70
2019-04-10T22:53:36.084Z,18.30
2019-04-10T22:57:40.913Z,18.27
2019-04-10T23:01:45.345Z,19.00
2019-04-10T23:05:48.926Z,19.10
2019-04-10T23:09:52.763Z,19.90
2019-04-10T23:13:56.385Z,19.77
2019-04-10T23:17:59.618Z,19.80
2019-04-10T23:22:05.154Z,19.80
2019-04-10T23:26:11.115Z,21.10
2019-04-10T23:30:18.685Z,19.50
2019-04-10T23:34:22.964Z,18.87
2019-04-10T23:38:26.124Z,19.20
2019-04-10T23:42:30.275Z,21.80
2019-04-10T23:46:36.898Z,20.53
2019-04-10T23:50:40.661Z,20.73
2019-04-10T23:54:41.936Z,20.50
2019-04-10T23:58:44.390Z,19.90
